sensor_id;sensor_type;location;lat;lon;timestamp;temperature;humidity
1367;DHT22;16877;48.810;9.282;2023-04-25T00:01:45;19.70;44.60
1367;DHT22;16877;48.810;9.282;2023-04-25T00:04:17;19.80;44.60
1367;DHT22;16877;48.810;9.282;2023-04-25T00:06:47;19.80;44.60
1367;DHT22;16877;48.810;9.282;2023-04-25T00:09:14;19.80;44.50
1367;DHT22;16877;48.810;9.282;2023-04-25T00:11:42;19.80;44.50
1367;DHT22;16877;48.810;9.282;2023-04-25T00:14:09;19.80;44.50
1367;DHT22;16877;48.810;9.282;2023-04-25T00:16:37;19.80;44.50
1367;DHT22;16877;48.810;9.282;2023-04-25T00:19:04;19.80;44.50
1367;DHT22;16877;48.810;9.282;2023-04-25T00:21:33;19.80;44.50
1367;DHT22;16877;48.810;9.282;2023-04-25T00:24:01;19.90;44.60
1367;DHT22;16877;48.810;9.282;2023-04-25T00:26:28;19.90;44.50
1367;DHT22;16877;48.810;9.282;2023-04-25T00:28:56;19.90;44.50
1367;DHT22;16877;48.810;9.282;2023-04-25T00:31:23;19.90;44.60
1367;DHT22;16877;48.810;9.282;2023-04-25T00:33:51;19.90;44.50
1367;DHT22;16877;48.810;9.282;2023-04-25T00:36:18;19.90;44.60
1367;DHT22;16877;48.810;9.282;2023-04-25T00:38:47;19.90;44.60
1367;DHT22;16877;48.810;9.282;2023-04-25T00:41:15;19.90;44.60
1367;DHT22;16877;48.810;9.282;2023-04-25T00:43:44;19.90;44.60
1367;DHT22;16877;48.810;9.282;2023-04-25T00:46:11;20.00;44.70
1367;DHT22;16877;48.810;9.282;2023-04-25T00:48:39;20.00;44.60
1367;DHT22;16877;48.810;9.282;2023-04-25T00:51:06;19.90;44.50
1367;DHT22;16877;48.810;9.282;2023-04-25T00:53:33;19.90;44.50
1367;DHT22;16877;48.810;9.282;2023-04-25T00:56:03;19.90;44.50
1367;DHT22;16877;48.810;9.282;2023-04-25T00:58:31;19.90;44.50
1367;DHT22;16877;48.810;9.282;2023-04-25T01:00:59;19.90;44.40
1367;DHT22;16877;48.810;9.282;2023-04-25T01:03:26;19.90;44.40
1367;DHT22;16877;48.810;9.282;2023-04-25T01:05:54;19.90;44.50
1367;DHT22;16877;48.810;9.282;2023-04-25T01:08:23;19.80;44.40
1367;DHT22;16877;48.810;9.282;2023-04-25T01:10:51;19.80;44.50
1367;DHT22;16877;48.810;9.282;2023-04-25T01:13:21;19.80;44.50
1367;DHT22;16877;48.810;9.282;2023-04-25T01:15:48;19.80;44.50
1367;DHT22;16877;48.810;9.282;2023-04-25T01:18:16;19.80;44.50
1367;DHT22;16877;48.810;9.282;2023-04-25T01:20:44;19.80;44.60
1367;DHT22;16877;48.810;9.282;2023-04-25T01:23:14;19.90;44.60
1367;DHT22;16877;48.810;9.282;2023-04-25T01:25:41;19.80;44.60
1367;DHT22;16877;48.810;9.282;2023-04-25T01:28:09;19.90;44.70
1367;DHT22;16877;48.810;9.282;2023-04-25T01:30:36;19.90;44.70
1367;DHT22;16877;48.810;9.282;2023-04-25T01:33:05;19.90;44.70
1367;DHT22;16877;48.810;9.282;2023-04-25T01:35:34;19.90;44.70
1367;DHT22;16877;48.810;9.282;2023-04-25T01:38:06;19.90;44.70
1367;DHT22;16877;48.810;9.282;2023-04-25T01:40:37;19.90;44.70
1367;DHT22;16877;48.810;9.282;2023-04-25T01:43:05;19.90;44.80
1367;DHT22;16877;48.810;9.282;2023-04-25T01:45:34;19.90;44.80
1367;DHT22;16877;48.810;9.282;2023-04-25T01:48:02;19.90;44.80
1367;DHT22;16877;48.810;9.282;2023-04-25T01:50:29;19.90;44.80
1367;DHT22;16877;48.810;9.282;2023-04-25T01:52:57;19.90;44.80
1367;DHT22;16877;48.810;9.282;2023-04-25T01:55:24;19.90;44.90
1367;DHT22;16877;48.810;9.282;2023-04-25T01:57:55;19.90;44.90
1367;DHT22;16877;48.810;9.282;2023-04-25T02:00:28;19.80;44.90
1367;DHT22;16877;48.810;9.282;2023-04-25T02:02:57;19.80;44.90
1367;DHT22;16877;48.810;9.282;2023-04-25T02:05:24;19.80;45.00
1367;DHT22;16877;48.810;9.282;2023-04-25T02:07:52;19.80;45.10
1367;DHT22;16877;48.810;9.282;2023-04-25T02:10:19;19.80;45.10
1367;DHT22;16877;48.810;9.282;2023-04-25T02:12:47;19.80;45.20
1367;DHT22;16877;48.810;9.282;2023-04-25T02:15:16;19.80;45.20
1367;DHT22;16877;48.810;9.282;2023-04-25T02:17:44;19.80;45.30
1367;DHT22;16877;48.810;9.282;2023-04-25T02:20:13;19.80;45.30
1367;DHT22;16877;48.810;9.282;2023-04-25T02:22:41;19.80;45.40
1367;DHT22;16877;48.810;9.282;2023-04-25T02:25:10;19.80;45.40
1367;DHT22;16877;48.810;9.282;2023-04-25T02:27:38;19.70;45.40
1367;DHT22;16877;48.810;9.282;2023-04-25T02:30:07;19.80;45.60
1367;DHT22;16877;48.810;9.282;2023-04-25T02:32:35;19.80;45.70
1367;DHT22;16877;48.810;9.282;2023-04-25T02:35:04;19.70;45.70
1367;DHT22;16877;48.810;9.282;2023-04-25T02:37:32;19.70;46.50
1367;DHT22;16877;48.810;9.282;2023-04-25T02:39:59;19.70;46.00
1367;DHT22;16877;48.810;9.282;2023-04-25T02:42:26;19.70;46.00
1367;DHT22;16877;48.810;9.282;2023-04-25T02:44:54;19.60;46.00
1367;DHT22;16877;48.810;9.282;2023-04-25T02:47:21;19.60;46.10
1367;DHT22;16877;48.810;9.282;2023-04-25T02:49:50;19.60;46.10
1367;DHT22;16877;48.810;9.282;2023-04-25T02:52:18;19.60;46.10
1367;DHT22;16877;48.810;9.282;2023-04-25T02:54:45;19.60;46.10
1367;DHT22;16877;48.810;9.282;2023-04-25T02:57:13;19.60;46.10
1367;DHT22;16877;48.810;9.282;2023-04-25T02:59:40;19.60;46.10
1367;DHT22;16877;48.810;9.282;2023-04-25T03:02:08;19.70;46.20
1367;DHT22;16877;48.810;9.282;2023-04-25T03:04:36;19.70;46.20
1367;DHT22;16877;48.810;9.282;2023-04-25T03:07:05;19.70;46.10
1367;DHT22;16877;48.810;9.282;2023-04-25T03:09:32;19.70;46.20
1367;DHT22;16877;48.810;9.282;2023-04-25T03:12:00;19.70;46.10
1367;DHT22;16877;48.810;9.282;2023-04-25T03:14:28;19.70;46.10
1367;DHT22;16877;48.810;9.282;2023-04-25T03:16:55;19.70;46.10
1367;DHT22;16877;48.810;9.282;2023-04-25T03:19:22;19.70;46.10
1367;DHT22;16877;48.810;9.282;2023-04-25T03:21:49;19.70;46.20
1367;DHT22;16877;48.810;9.282;2023-04-25T03:24:18;19.70;46.70
1367;DHT22;16877;48.810;9.282;2023-04-25T03:26:46;19.70;46.10
1367;DHT22;16877;48.810;9.282;2023-04-25T03:29:13;19.70;46.10
1367;DHT22;16877;48.810;9.282;2023-04-25T03:31:41;19.70;46.10
1367;DHT22;16877;48.810;9.282;2023-04-25T03:34:08;19.60;46.60
1367;DHT22;16877;48.810;9.282;2023-04-25T03:36:36;19.60;46.00
1367;DHT22;16877;48.810;9.282;2023-04-25T03:39:04;19.50;46.00
1367;DHT22;16877;48.810;9.282;2023-04-25T03:41:33;19.60;46.10
1367;DHT22;16877;48.810;9.282;2023-04-25T03:44:00;19.50;46.00
1367;DHT22;16877;48.810;9.282;2023-04-25T03:46:28;19.50;46.00
1367;DHT22;16877;48.810;9.282;2023-04-25T03:48:55;19.50;46.00
1367;DHT22;16877;48.810;9.282;2023-04-25T03:51:23;19.60;46.10
1367;DHT22;16877;48.810;9.282;2023-04-25T03:53:51;19.50;46.10
1367;DHT22;16877;48.810;9.282;2023-04-25T03:56:18;19.50;46.20
1367;DHT22;16877;48.810;9.282;2023-04-25T03:58:47;19.50;46.20
1367;DHT22;16877;48.810;9.282;2023-04-25T04:01:14;19.50;46.20
1367;DHT22;16877;48.810;9.282;2023-04-25T04:03:42;19.50;46.20
1367;DHT22;16877;48.810;9.282;2023-04-25T04:06:10;19.50;46.20
1367;DHT22;16877;48.810;9.282;2023-04-25T04:08:38;19.40;46.10
1367;DHT22;16877;48.810;9.282;2023-04-25T04:11:06;19.40;46.20
1367;DHT22;16877;48.810;9.282;2023-04-25T04:13:34;19.40;46.10
1367;DHT22;16877;48.810;9.282;2023-04-25T04:16:03;19.40;46.10
1367;DHT22;16877;48.810;9.282;2023-04-25T04:18:31;19.50;46.20
1367;DHT22;16877;48.810;9.282;2023-04-25T04:20:58;19.40;46.10
1367;DHT22;16877;48.810;9.282;2023-04-25T04:23:26;19.40;46.10
1367;DHT22;16877;48.810;9.282;2023-04-25T04:25:54;19.40;46.10
1367;DHT22;16877;48.810;9.282;2023-04-25T04:28:21;19.40;46.00
1367;DHT22;16877;48.810;9.282;2023-04-25T04:30:49;19.40;46.00
1367;DHT22;16877;48.810;9.282;2023-04-25T04:33:18;19.40;45.90
1367;DHT22;16877;48.810;9.282;2023-04-25T04:35:46;19.40;45.90
1367;DHT22;16877;48.810;9.282;2023-04-25T04:38:14;19.40;46.00
1367;DHT22;16877;48.810;9.282;2023-04-25T04:40:41;19.40;45.80
1367;DHT22;16877;48.810;9.282;2023-04-25T04:43:08;19.40;45.80
1367;DHT22;16877;48.810;9.282;2023-04-25T04:45:36;19.40;45.80
1367;DHT22;16877;48.810;9.282;2023-04-25T04:48:04;19.50;45.80
1367;DHT22;16877;48.810;9.282;2023-04-25T04:50:33;19.40;45.80
1367;DHT22;16877;48.810;9.282;2023-04-25T04:53:01;19.40;45.70
1367;DHT22;16877;48.810;9.282;2023-04-25T04:55:29;19.40;45.70
1367;DHT22;16877;48.810;9.282;2023-04-25T04:57:56;19.40;45.80
1367;DHT22;16877;48.810;9.282;2023-04-25T05:00:24;19.40;45.70
1367;DHT22;16877;48.810;9.282;2023-04-25T05:02:52;19.50;45.80
1367;DHT22;16877;48.810;9.282;2023-04-25T05:05:19;19.40;45.70
1367;DHT22;16877;48.810;9.282;2023-04-25T05:07:48;19.40;45.70
1367;DHT22;16877;48.810;9.282;2023-04-25T05:10:16;19.40;45.80
1367;DHT22;16877;48.810;9.282;2023-04-25T05:12:44;19.40;45.80
1367;DHT22;16877;48.810;9.282;2023-04-25T05:15:11;19.30;45.80
1367;DHT22;16877;48.810;9.282;2023-04-25T05:17:39;19.30;45.90
1367;DHT22;16877;48.810;9.282;2023-04-25T05:20:07;19.30;45.90
1367;DHT22;16877;48.810;9.282;2023-04-25T05:22:34;19.30;46.00
1367;DHT22;16877;48.810;9.282;2023-04-25T05:25:05;19.40;46.00
1367;DHT22;16877;48.810;9.282;2023-04-25T05:27:32;19.40;46.10
1367;DHT22;16877;48.810;9.282;2023-04-25T05:30:00;19.40;46.00
1367;DHT22;16877;48.810;9.282;2023-04-25T05:32:31;19.40;46.10
1367;DHT22;16877;48.810;9.282;2023-04-25T05:34:59;19.50;46.10
1367;DHT22;16877;48.810;9.282;2023-04-25T05:37:30;19.50;46.20
1367;DHT22;16877;48.810;9.282;2023-04-25T05:39:58;19.40;46.20
1367;DHT22;16877;48.810;9.282;2023-04-25T05:42:29;19.40;46.10
1367;DHT22;16877;48.810;9.282;2023-04-25T05:44:56;19.40;46.20
1367;DHT22;16877;48.810;9.282;2023-04-25T05:47:23;19.30;46.10
1367;DHT22;16877;48.810;9.282;2023-04-25T05:49:51;19.30;46.20
1367;DHT22;16877;48.810;9.282;2023-04-25T05:52:18;19.30;46.40
1367;DHT22;16877;48.810;9.282;2023-04-25T05:54:46;19.30;46.50
1367;DHT22;16877;48.810;9.282;2023-04-25T05:57:19;19.40;46.70
1367;DHT22;16877;48.810;9.282;2023-04-25T05:59:48;19.40;46.90
1367;DHT22;16877;48.810;9.282;2023-04-25T06:02:16;19.30;47.20
1367;DHT22;16877;48.810;9.282;2023-04-25T06:04:43;19.40;47.30
1367;DHT22;16877;48.810;9.282;2023-04-25T06:07:10;19.30;47.50
1367;DHT22;16877;48.810;9.282;2023-04-25T06:09:38;19.30;47.50
1367;DHT22;16877;48.810;9.282;2023-04-25T06:12:06;19.30;47.50
1367;DHT22;16877;48.810;9.282;2023-04-25T06:14:34;19.30;47.50
1367;DHT22;16877;48.810;9.282;2023-04-25T06:17:03;19.30;47.60
1367;DHT22;16877;48.810;9.282;2023-04-25T06:19:34;19.30;47.60
1367;DHT22;16877;48.810;9.282;2023-04-25T06:22:02;19.30;47.60
1367;DHT22;16877;48.810;9.282;2023-04-25T06:24:30;19.30;47.60
1367;DHT22;16877;48.810;9.282;2023-04-25T06:26:57;19.40;47.60
1367;DHT22;16877;48.810;9.282;2023-04-25T06:29:27;19.30;47.60
1367;DHT22;16877;48.810;9.282;2023-04-25T06:31:55;19.40;47.50
1367;DHT22;16877;48.810;9.282;2023-04-25T06:34:24;19.40;47.50
1367;DHT22;16877;48.810;9.282;2023-04-25T06:36:52;19.50;47.60
1367;DHT22;16877;48.810;9.282;2023-04-25T06:39:19;19.60;47.70
1367;DHT22;16877;48.810;9.282;2023-04-25T06:41:48;19.90;51.90
1367;DHT22;16877;48.810;9.282;2023-04-25T06:44:16;20.10;51.00
1367;DHT22;16877;48.810;9.282;2023-04-25T06:46:43;20.10;49.90
1367;DHT22;16877;48.810;9.282;2023-04-25T06:49:10;20.20;48.50
1367;DHT22;16877;48.810;9.282;2023-04-25T06:51:40;20.20;48.10
1367;DHT22;16877;48.810;9.282;2023-04-25T06:54:08;20.20;47.80
1367;DHT22;16877;48.810;9.282;2023-04-25T06:56:36;20.20;47.40
1367;DHT22;16877;48.810;9.282;2023-04-25T06:59:03;20.20;47.10
1367;DHT22;16877;48.810;9.282;2023-04-25T07:01:31;20.20;47.00
1367;DHT22;16877;48.810;9.282;2023-04-25T07:03:58;20.20;46.90
1367;DHT22;16877;48.810;9.282;2023-04-25T07:06:26;20.20;46.80
1367;DHT22;16877;48.810;9.282;2023-04-25T07:08:55;20.30;46.80
1367;DHT22;16877;48.810;9.282;2023-04-25T07:11:22;20.30;46.80
1367;DHT22;16877;48.810;9.282;2023-04-25T07:13:50;20.30;46.70
1367;DHT22;16877;48.810;9.282;2023-04-25T07:16:17;20.30;46.70
1367;DHT22;16877;48.810;9.282;2023-04-25T07:18:45;20.30;46.60
1367;DHT22;16877;48.810;9.282;2023-04-25T07:21:12;20.30;46.50
1367;DHT22;16877;48.810;9.282;2023-04-25T07:23:39;20.30;46.60
1367;DHT22;16877;48.810;9.282;2023-04-25T07:26:08;20.30;46.60
1367;DHT22;16877;48.810;9.282;2023-04-25T07:28:35;20.30;46.60
1367;DHT22;16877;48.810;9.282;2023-04-25T07:31:03;20.30;46.60
1367;DHT22;16877;48.810;9.282;2023-04-25T07:33:31;20.30;46.60
1367;DHT22;16877;48.810;9.282;2023-04-25T07:35:58;20.30;46.60
1367;DHT22;16877;48.810;9.282;2023-04-25T07:38:26;20.30;46.60
1367;DHT22;16877;48.810;9.282;2023-04-25T07:40:53;20.40;46.60
1367;DHT22;16877;48.810;9.282;2023-04-25T07:43:43;20.40;46.70
1367;DHT22;16877;48.810;9.282;2023-04-25T07:46:13;20.30;46.70
1367;DHT22;16877;48.810;9.282;2023-04-25T07:48:41;20.30;46.70
1367;DHT22;16877;48.810;9.282;2023-04-25T07:51:08;20.30;46.70
1367;DHT22;16877;48.810;9.282;2023-04-25T07:53:36;20.30;46.80
1367;DHT22;16877;48.810;9.282;2023-04-25T07:56:04;20.30;46.80
1367;DHT22;16877;48.810;9.282;2023-04-25T07:58:32;20.30;46.90
1367;DHT22;16877;48.810;9.282;2023-04-25T08:01:01;20.30;46.90
1367;DHT22;16877;48.810;9.282;2023-04-25T08:03:28;20.20;46.90
1367;DHT22;16877;48.810;9.282;2023-04-25T08:05:57;20.30;47.10
1367;DHT22;16877;48.810;9.282;2023-04-25T08:08:24;20.20;47.10
1367;DHT22;16877;48.810;9.282;2023-04-25T08:10:55;20.20;47.30
1367;DHT22;16877;48.810;9.282;2023-04-25T08:13:22;20.20;47.50
1367;DHT22;16877;48.810;9.282;2023-04-25T08:15:51;20.20;47.70
1367;DHT22;16877;48.810;9.282;2023-04-25T08:18:20;20.10;47.80
1367;DHT22;16877;48.810;9.282;2023-04-25T08:20:48;20.20;47.90
1367;DHT22;16877;48.810;9.282;2023-04-25T08:23:20;20.20;48.00
1367;DHT22;16877;48.810;9.282;2023-04-25T08:25:48;20.10;48.00
1367;DHT22;16877;48.810;9.282;2023-04-25T08:28:17;20.10;48.00
1367;DHT22;16877;48.810;9.282;2023-04-25T08:30:45;20.00;48.10
1367;DHT22;16877;48.810;9.282;2023-04-25T08:33:29;20.00;48.20
1367;DHT22;16877;48.810;9.282;2023-04-25T08:36:02;20.00;48.30
1367;DHT22;16877;48.810;9.282;2023-04-25T08:38:30;20.00;48.50
1367;DHT22;16877;48.810;9.282;2023-04-25T08:41:02;20.00;48.60
1367;DHT22;16877;48.810;9.282;2023-04-25T08:43:30;20.00;48.90
1367;DHT22;16877;48.810;9.282;2023-04-25T08:46:05;20.00;49.50
1367;DHT22;16877;48.810;9.282;2023-04-25T08:48:34;20.10;49.20
1367;DHT22;16877;48.810;9.282;2023-04-25T08:51:33;20.10;49.20
1367;DHT22;16877;48.810;9.282;2023-04-25T08:54:10;20.10;49.20
1367;DHT22;16877;48.810;9.282;2023-04-25T08:56:44;20.10;49.20
1367;DHT22;16877;48.810;9.282;2023-04-25T08:59:16;20.20;49.30
1367;DHT22;16877;48.810;9.282;2023-04-25T09:01:46;20.10;49.30
1367;DHT22;16877;48.810;9.282;2023-04-25T09:04:18;20.10;49.40
1367;DHT22;16877;48.810;9.282;2023-04-25T09:06:46;20.10;49.40
1367;DHT22;16877;48.810;9.282;2023-04-25T09:09:18;20.10;49.40
1367;DHT22;16877;48.810;9.282;2023-04-25T09:11:47;20.00;49.40
1367;DHT22;16877;48.810;9.282;2023-04-25T09:14:15;20.00;49.40
1367;DHT22;16877;48.810;9.282;2023-04-25T09:16:59;19.90;49.30
1367;DHT22;16877;48.810;9.282;2023-04-25T09:19:32;19.90;49.30
1367;DHT22;16877;48.810;9.282;2023-04-25T09:22:02;19.90;49.50
1367;DHT22;16877;48.810;9.282;2023-04-25T09:24:34;19.80;49.50
1367;DHT22;16877;48.810;9.282;2023-04-25T09:27:03;19.80;49.60
1367;DHT22;16877;48.810;9.282;2023-04-25T09:29:31;19.80;49.80
1367;DHT22;16877;48.810;9.282;2023-04-25T09:32:13;19.80;49.80
1367;DHT22;16877;48.810;9.282;2023-04-25T09:34:57;19.80;50.00
1367;DHT22;16877;48.810;9.282;2023-04-25T09:40:17;19.90;49.80
1367;DHT22;16877;48.810;9.282;2023-04-25T09:42:45;19.80;49.80
1367;DHT22;16877;48.810;9.282;2023-04-25T09:45:19;19.90;49.80
1367;DHT22;16877;48.810;9.282;2023-04-25T09:47:57;19.90;49.90
1367;DHT22;16877;48.810;9.282;2023-04-25T09:50:31;19.90;50.00
1367;DHT22;16877;48.810;9.282;2023-04-25T09:53:11;19.90;50.00
1367;DHT22;16877;48.810;9.282;2023-04-25T09:55:45;19.90;50.00
1367;DHT22;16877;48.810;9.282;2023-04-25T09:58:14;19.90;50.10
1367;DHT22;16877;48.810;9.282;2023-04-25T10:00:43;19.90;50.10
1367;DHT22;16877;48.810;9.282;2023-04-25T10:03:11;19.80;50.10
1367;DHT22;16877;48.810;9.282;2023-04-25T10:05:53;19.80;50.20
1367;DHT22;16877;48.810;9.282;2023-04-25T10:08:31;19.80;50.10
1367;DHT22;16877;48.810;9.282;2023-04-25T10:11:00;19.70;50.10
1367;DHT22;16877;48.810;9.282;2023-04-25T10:13:29;19.70;50.10
1367;DHT22;16877;48.810;9.282;2023-04-25T10:15:57;19.70;50.10
1367;DHT22;16877;48.810;9.282;2023-04-25T10:18:26;19.60;49.90
1367;DHT22;16877;48.810;9.282;2023-04-25T10:20:58;19.50;49.80
1367;DHT22;16877;48.810;9.282;2023-04-25T10:23:28;19.50;49.90
1367;DHT22;16877;48.810;9.282;2023-04-25T10:25:57;19.40;49.80
1367;DHT22;16877;48.810;9.282;2023-04-25T10:28:25;19.30;49.80
1367;DHT22;16877;48.810;9.282;2023-04-25T10:30:59;19.30;50.00
1367;DHT22;16877;48.810;9.282;2023-04-25T10:33:33;19.20;50.00
1367;DHT22;16877;48.810;9.282;2023-04-25T10:36:26;19.20;50.00
1367;DHT22;16877;48.810;9.282;2023-04-25T10:39:03;19.20;50.00
1367;DHT22;16877;48.810;9.282;2023-04-25T10:41:46;19.10;50.00
1367;DHT22;16877;48.810;9.282;2023-04-25T10:44:14;19.10;50.10
1367;DHT22;16877;48.810;9.282;2023-04-25T10:46:41;19.10;50.20
1367;DHT22;16877;48.810;9.282;2023-04-25T10:49:30;19.00;50.10
1367;DHT22;16877;48.810;9.282;2023-04-25T10:55:23;19.00;50.20
1367;DHT22;16877;48.810;9.282;2023-04-25T10:57:59;19.00;50.20
1367;DHT22;16877;48.810;9.282;2023-04-25T11:00:28;19.00;50.20
1367;DHT22;16877;48.810;9.282;2023-04-25T11:03:05;19.00;50.20
1367;DHT22;16877;48.810;9.282;2023-04-25T11:05:35;19.00;50.20
1367;DHT22;16877;48.810;9.282;2023-04-25T11:08:10;19.00;50.30
1367;DHT22;16877;48.810;9.282;2023-04-25T11:10:47;19.00;50.30
1367;DHT22;16877;48.810;9.282;2023-04-25T11:13:16;19.10;50.40
1367;DHT22;16877;48.810;9.282;2023-04-25T11:15:45;19.00;50.10
1367;DHT22;16877;48.810;9.282;2023-04-25T11:18:27;19.00;50.10
1367;DHT22;16877;48.810;9.282;2023-04-25T11:21:00;19.10;50.10
1367;DHT22;16877;48.810;9.282;2023-04-25T11:23:27;19.10;50.20
1367;DHT22;16877;48.810;9.282;2023-04-25T11:25:57;19.20;50.30
1367;DHT22;16877;48.810;9.282;2023-04-25T11:28:26;19.20;50.20
1367;DHT22;16877;48.810;9.282;2023-04-25T11:30:54;19.30;50.20
1367;DHT22;16877;48.810;9.282;2023-04-25T11:33:25;19.30;50.20
1367;DHT22;16877;48.810;9.282;2023-04-25T11:35:58;19.40;50.10
1367;DHT22;16877;48.810;9.282;2023-04-25T11:38:25;19.50;50.00
1367;DHT22;16877;48.810;9.282;2023-04-25T11:40:53;19.50;49.90
1367;DHT22;16877;48.810;9.282;2023-04-25T11:43:22;19.60;50.10
1367;DHT22;16877;48.810;9.282;2023-04-25T11:45:50;19.60;49.80
1367;DHT22;16877;48.810;9.282;2023-04-25T11:48:17;19.70;49.90
1367;DHT22;16877;48.810;9.282;2023-04-25T11:50:46;19.70;49.90
1367;DHT22;16877;48.810;9.282;2023-04-25T11:53:13;19.80;49.80
1367;DHT22;16877;48.810;9.282;2023-04-25T11:55:41;19.80;49.80
1367;DHT22;16877;48.810;9.282;2023-04-25T11:58:09;19.90;49.90
1367;DHT22;16877;48.810;9.282;2023-04-25T12:00:42;19.90;49.70
1367;DHT22;16877;48.810;9.282;2023-04-25T12:03:09;20.00;49.60
1367;DHT22;16877;48.810;9.282;2023-04-25T12:05:36;20.00;49.60
1367;DHT22;16877;48.810;9.282;2023-04-25T12:08:12;20.10;49.60
1367;DHT22;16877;48.810;9.282;2023-04-25T12:10:40;20.20;49.50
1367;DHT22;16877;48.810;9.282;2023-04-25T12:13:19;20.20;49.50
1367;DHT22;16877;48.810;9.282;2023-04-25T12:15:49;20.20;49.40
1367;DHT22;16877;48.810;9.282;2023-04-25T12:18:19;20.30;49.40
1367;DHT22;16877;48.810;9.282;2023-04-25T12:20:46;20.40;49.50
1367;DHT22;16877;48.810;9.282;2023-04-25T12:23:14;20.30;49.30
1367;DHT22;16877;48.810;9.282;2023-04-25T12:25:42;20.30;49.30
1367;DHT22;16877;48.810;9.282;2023-04-25T12:28:11;20.30;49.20
1367;DHT22;16877;48.810;9.282;2023-04-25T12:30:57;20.30;49.20
1367;DHT22;16877;48.810;9.282;2023-04-25T12:33:25;20.20;48.90
1367;DHT22;16877;48.810;9.282;2023-04-25T12:35:53;20.20;48.70
1367;DHT22;16877;48.810;9.282;2023-04-25T12:38:24;20.20;48.70
1367;DHT22;16877;48.810;9.282;2023-04-25T12:40:52;20.10;48.70
1367;DHT22;16877;48.810;9.282;2023-04-25T12:43:20;20.10;48.80
1367;DHT22;16877;48.810;9.282;2023-04-25T12:45:48;20.10;48.90
1367;DHT22;16877;48.810;9.282;2023-04-25T12:48:18;20.00;48.80
1367;DHT22;16877;48.810;9.282;2023-04-25T12:50:46;20.10;49.50
1367;DHT22;16877;48.810;9.282;2023-04-25T12:53:14;20.10;48.80
1367;DHT22;16877;48.810;9.282;2023-04-25T12:55:42;20.20;48.90
1367;DHT22;16877;48.810;9.282;2023-04-25T12:58:11;20.40;49.00
1367;DHT22;16877;48.810;9.282;2023-04-25T13:00:38;20.40;49.00
1367;DHT22;16877;48.810;9.282;2023-04-25T13:03:05;20.60;49.00
1367;DHT22;16877;48.810;9.282;2023-04-25T13:05:35;20.90;49.00
1367;DHT22;16877;48.810;9.282;2023-04-25T13:08:02;21.20;48.90
1367;DHT22;16877;48.810;9.282;2023-04-25T13:10:30;21.40;48.90
1367;DHT22;16877;48.810;9.282;2023-04-25T13:12:59;21.60;48.70
1367;DHT22;16877;48.810;9.282;2023-04-25T13:15:26;21.70;48.40
1367;DHT22;16877;48.810;9.282;2023-04-25T13:17:54;22.00;48.30
1367;DHT22;16877;48.810;9.282;2023-04-25T13:20:21;22.10;47.80
1367;DHT22;16877;48.810;9.282;2023-04-25T13:22:51;22.30;47.60
1367;DHT22;16877;48.810;9.282;2023-04-25T13:25:18;22.70;47.30
1367;DHT22;16877;48.810;9.282;2023-04-25T13:27:47;22.70;47.00
1367;DHT22;16877;48.810;9.282;2023-04-25T13:30:14;22.80;46.70
1367;DHT22;16877;48.810;9.282;2023-04-25T13:32:43;22.70;46.50
1367;DHT22;16877;48.810;9.282;2023-04-25T13:35:12;22.80;46.40
1367;DHT22;16877;48.810;9.282;2023-04-25T13:37:41;22.80;46.20
1367;DHT22;16877;48.810;9.282;2023-04-25T13:40:11;22.80;46.30
1367;DHT22;16877;48.810;9.282;2023-04-25T13:42:39;22.70;46.10
1367;DHT22;16877;48.810;9.282;2023-04-25T13:45:07;22.80;46.00
1367;DHT22;16877;48.810;9.282;2023-04-25T13:47:40;22.90;46.50
1367;DHT22;16877;48.810;9.282;2023-04-25T13:50:10;22.80;45.90
1367;DHT22;16877;48.810;9.282;2023-04-25T13:52:55;22.80;46.00
1367;DHT22;16877;48.810;9.282;2023-04-25T13:58:23;22.60;45.80
1367;DHT22;16877;48.810;9.282;2023-04-25T14:00:55;22.60;45.80
1367;DHT22;16877;48.810;9.282;2023-04-25T14:03:31;22.70;46.00
1367;DHT22;16877;48.810;9.282;2023-04-25T14:05:58;22.80;46.10
1367;DHT22;16877;48.810;9.282;2023-04-25T14:08:27;22.80;46.00
1367;DHT22;16877;48.810;9.282;2023-04-25T14:10:56;23.00;46.00
1367;DHT22;16877;48.810;9.282;2023-04-25T14:13:27;23.60;46.10
1367;DHT22;16877;48.810;9.282;2023-04-25T14:15:55;23.80;46.10
1367;DHT22;16877;48.810;9.282;2023-04-25T14:18:25;24.20;45.90
1367;DHT22;16877;48.810;9.282;2023-04-25T14:20:52;24.30;45.40
1367;DHT22;16877;48.810;9.282;2023-04-25T14:23:20;24.60;45.20
1367;DHT22;16877;48.810;9.282;2023-04-25T14:25:50;24.50;44.70
1367;DHT22;16877;48.810;9.282;2023-04-25T14:28:18;24.70;44.60
1367;DHT22;16877;48.810;9.282;2023-04-25T14:30:48;25.30;44.50
1367;DHT22;16877;48.810;9.282;2023-04-25T14:33:15;25.50;43.70
1367;DHT22;16877;48.810;9.282;2023-04-25T14:35:43;25.90;43.20
1367;DHT22;16877;48.810;9.282;2023-04-25T14:38:10;26.30;42.80
1367;DHT22;16877;48.810;9.282;2023-04-25T14:40:40;26.50;42.70
1367;DHT22;16877;48.810;9.282;2023-04-25T14:43:16;26.30;42.20
1367;DHT22;16877;48.810;9.282;2023-04-25T14:48:30;26.00;41.80
1367;DHT22;16877;48.810;9.282;2023-04-25T14:50:58;25.80;41.70
1367;DHT22;16877;48.810;9.282;2023-04-25T14:53:29;25.70;41.60
1367;DHT22;16877;48.810;9.282;2023-04-25T14:56:00;25.80;41.40
1367;DHT22;16877;48.810;9.282;2023-04-25T14:58:54;25.60;41.40
1367;DHT22;16877;48.810;9.282;2023-04-25T15:01:31;25.50;41.10
1367;DHT22;16877;48.810;9.282;2023-04-25T15:04:05;25.40;41.20
1367;DHT22;16877;48.810;9.282;2023-04-25T15:06:36;25.30;41.00
1367;DHT22;16877;48.810;9.282;2023-04-25T15:09:08;25.20;41.00
1367;DHT22;16877;48.810;9.282;2023-04-25T15:11:43;25.40;41.40
1367;DHT22;16877;48.810;9.282;2023-04-25T15:14:13;25.70;41.40
1367;DHT22;16877;48.810;9.282;2023-04-25T15:16:40;26.10;41.30
1367;DHT22;16877;48.810;9.282;2023-04-25T15:19:11;26.30;41.30
1367;DHT22;16877;48.810;9.282;2023-04-25T15:21:44;26.70;41.00
1367;DHT22;16877;48.810;9.282;2023-04-25T15:24:11;27.00;40.80
1367;DHT22;16877;48.810;9.282;2023-04-25T15:26:41;27.10;40.60
1367;DHT22;16877;48.810;9.282;2023-04-25T15:29:17;27.30;40.50
1367;DHT22;16877;48.810;9.282;2023-04-25T15:31:45;27.20;40.30
1367;DHT22;16877;48.810;9.282;2023-04-25T15:34:17;27.20;40.00
1367;DHT22;16877;48.810;9.282;2023-04-25T15:36:44;27.00;39.80
1367;DHT22;16877;48.810;9.282;2023-04-25T15:39:12;26.90;39.60
1367;DHT22;16877;48.810;9.282;2023-04-25T15:41:45;26.80;39.80
1367;DHT22;16877;48.810;9.282;2023-04-25T15:44:19;26.70;39.60
1367;DHT22;16877;48.810;9.282;2023-04-25T15:46:52;26.60;39.50
1367;DHT22;16877;48.810;9.282;2023-04-25T15:49:26;26.50;39.30
1367;DHT22;16877;48.810;9.282;2023-04-25T15:51:54;26.30;39.10
1367;DHT22;16877;48.810;9.282;2023-04-25T15:54:28;26.20;39.80
1367;DHT22;16877;48.810;9.282;2023-04-25T15:57:11;26.00;39.40
1367;DHT22;16877;48.810;9.282;2023-04-25T15:59:38;25.80;39.30
1367;DHT22;16877;48.810;9.282;2023-04-25T16:02:06;25.60;39.30
1367;DHT22;16877;48.810;9.282;2023-04-25T16:04:36;25.50;39.60
1367;DHT22;16877;48.810;9.282;2023-04-25T16:07:04;25.40;39.70
1367;DHT22;16877;48.810;9.282;2023-04-25T16:09:33;25.20;39.90
1367;DHT22;16877;48.810;9.282;2023-04-25T16:12:04;25.00;40.00